createdAt,value
2019-03-21T00:00:24.175Z,0
2019-03-21T00:01:24.188Z,0
2019-03-21T00:02:24.143Z,0
2019-03-21T00:03:24.164Z,0
2019-03-21T00:04:24.127Z,0
2019-03-21T00:05:24.222Z,0
2019-03-21T00:06:24.104Z,0
2019-03-21T00:07:24.159Z,0
2019-03-21T00:08:24.114Z,0
2019-03-21T00:09:24.130Z,0
2019-03-21T00:10:24.062Z,0
2019-03-21T00:11:24.073Z,0
2019-03-21T00:12:24.075Z,0
2019-03-21T00:13:24.123Z,0
2019-03-21T00:14:24.030Z,0
2019-03-21T00:15:23.817Z,0
2019-03-21T00:16:24.040Z,0
2019-03-21T00:17:24.061Z,0
2019-03-21T00:18:23.990Z,0
2019-03-21T00:19:24.028Z,0
2019-03-21T00:20:23.979Z,0
2019-03-21T00:21:24.012Z,0
2019-03-21T00:22:23.959Z,0
2019-03-21T00:23:24.022Z,0
2019-03-21T00:24:23.959Z,0
2019-03-21T00:25:23.973Z,0
2019-03-21T00:26:23.914Z,0
2019-03-21T00:27:23.929Z,0
2019-03-21T00:28:23.928Z,0
2019-03-21T00:29:23.938Z,0
2019-03-21T00:30:23.948Z,0
2019-03-21T00:31:23.897Z,0
2019-03-21T00:32:23.890Z,0
2019-03-21T00:33:23.884Z,0
2019-03-21T00:34:23.656Z,0
2019-03-21T00:35:23.857Z,0
2019-03-21T00:36:23.883Z,0
2019-03-21T00:37:23.831Z,0
2019-03-21T00:38:23.872Z,0
2019-03-21T00:39:34.800Z,0
2019-03-21T00:40:23.813Z,0
2019-03-21T00:41:23.835Z,0
2019-03-21T00:42:23.781Z,0
2019-03-21T00:43:23.782Z,0
2019-03-21T00:44:28.008Z,0
2019-03-21T00:45:23.793Z,0
2019-03-21T00:46:23.791Z,0
2019-03-21T00:47:23.755Z,0
2019-03-21T00:48:23.510Z,0
2019-03-21T00:49:23.718Z,0
2019-03-21T00:50:23.759Z,0
2019-03-21T00:51:23.712Z,0
2019-03-21T00:52:23.743Z,0
2019-03-21T00:53:23.456Z,0
2019-03-21T00:54:23.716Z,0
2019-03-21T00:55:23.467Z,0
2019-03-21T00:56:24.033Z,0
2019-03-21T00:57:23.700Z,0
2019-03-21T00:58:23.700Z,0
2019-03-21T00:59:23.683Z,0
2019-03-21T01:00:23.668Z,0
2019-03-21T01:01:23.663Z,0
2019-03-21T01:02:23.653Z,0
2019-03-21T01:03:23.647Z,0
2019-03-21T01:04:23.640Z,0
2019-03-21T01:05:23.382Z,0
2019-03-21T01:06:23.627Z,0
2019-03-21T01:07:23.558Z,0
2019-03-21T01:08:23.593Z,0
2019-03-21T01:09:23.572Z,0
2019-03-21T01:10:23.571Z,0
2019-03-21T01:11:23.523Z,0
2019-03-21T01:12:23.533Z,0
2019-03-21T01:13:23.507Z,0
2019-03-21T01:14:34.088Z,0
2019-03-21T01:15:23.517Z,0
2019-03-21T01:16:23.251Z,0
2019-03-21T01:17:23.478Z,0
2019-03-21T01:18:23.471Z,0
2019-03-21T01:19:23.482Z,0
2019-03-21T01:20:23.462Z,0
2019-03-21T01:21:23.490Z,0
2019-03-21T01:22:23.420Z,0
2019-03-21T01:23:23.449Z,0
2019-03-21T01:24:23.397Z,0
2019-03-21T01:25:23.427Z,0
2019-03-21T01:26:23.379Z,0
2019-03-21T01:27:23.431Z,0
2019-03-21T01:28:23.387Z,0
2019-03-21T01:29:23.146Z,0
2019-03-21T01:30:23.095Z,0
2019-03-21T01:31:23.372Z,0
2019-03-21T01:32:23.366Z,0
2019-03-21T01:33:23.325Z,0
2019-03-21T01:34:23.305Z,0
2019-03-21T01:35:23.339Z,0
2019-03-21T01:36:23.322Z,0
2019-03-21T01:37:23.385Z,0
2019-03-21T01:38:23.266Z,0
2019-03-21T01:39:23.299Z,0
2019-03-21T01:40:23.269Z,0
2019-03-21T01:41:23.283Z,0
2019-03-21T01:42:23.226Z,0
2019-03-21T01:43:23.307Z,0
2019-03-21T01:44:23.245Z,0
2019-03-21T01:45:23.220Z,0
2019-03-21T01:46:23.257Z,0
2019-03-21T01:47:23.240Z,0
2019-03-21T01:48:23.209Z,0
2019-03-21T01:49:23.186Z,0
2019-03-21T01:50:23.165Z,0
2019-03-21T01:51:23.193Z,0
2019-03-21T01:52:23.176Z,0
2019-03-21T01:53:23.192Z,0
2019-03-21T01:54:23.117Z,0
2019-03-21T01:55:23.173Z,0
2019-03-21T01:56:23.136Z,0
2019-03-21T01:57:23.133Z,0
2019-03-21T01:58:23.143Z,0
2019-03-21T01:59:23.097Z,0
2019-03-21T02:00:22.906Z,0
2019-03-21T02:01:23.076Z,0
2019-03-21T02:02:23.104Z,0
2019-03-21T02:03:23.088Z,0
2019-03-21T02:04:23.061Z,0
2019-03-21T02:05:23.038Z,0
2019-03-21T02:06:23.028Z,0
2019-03-21T02:07:23.053Z,0
2019-03-21T02:08:23.017Z,0
2019-03-21T02:09:23.049Z,0
2019-03-21T02:10:22.736Z,0
2019-03-21T02:11:23.005Z,0
2019-03-21T02:12:22.951Z,0
2019-03-21T02:13:22.797Z,0
2019-03-21T02:14:22.942Z,0
2019-03-21T02:15:24.901Z,0
2019-03-21T02:16:22.946Z,0
2019-03-21T02:17:22.958Z,0
2019-03-21T02:18:22.898Z,0
2019-03-21T02:19:22.913Z,0
2019-03-21T02:20:22.907Z,0
2019-03-21T02:21:22.918Z,0
2019-03-21T02:22:22.885Z,0
2019-03-21T02:23:22.893Z,0
2019-03-21T02:24:22.884Z,0
2019-03-21T02:25:22.893Z,0
2019-03-21T02:26:22.831Z,0
2019-03-21T02:27:22.612Z,0
2019-03-21T02:28:22.810Z,0
2019-03-21T02:29:22.852Z,0
2019-03-21T02:30:22.800Z,0
2019-03-21T02:31:22.883Z,0
2019-03-21T02:32:22.814Z,0
2019-03-21T02:33:22.820Z,0
2019-03-21T02:34:22.760Z,0
2019-03-21T02:35:22.785Z,0
2019-03-21T02:36:22.779Z,0
2019-03-21T02:37:22.779Z,0
2019-03-21T02:38:22.794Z,0
2019-03-21T02:39:22.796Z,0
2019-03-21T02:40:22.769Z,0
2019-03-21T02:41:25.466Z,0
2019-03-21T02:42:22.744Z,0
2019-03-21T02:43:22.694Z,0
2019-03-21T02:44:22.733Z,0
2019-03-21T02:45:22.970Z,0
2019-03-21T02:46:22.787Z,0
2019-03-21T02:47:22.805Z,0
2019-03-21T02:48:22.668Z,0
2019-03-21T02:49:22.755Z,0
2019-03-21T02:50:22.625Z,0
2019-03-21T02:51:22.634Z,0
2019-03-21T02:52:22.653Z,0
2019-03-21T02:53:22.635Z,0
2019-03-21T02:54:22.641Z,0
2019-03-21T02:55:22.624Z,0
2019-03-21T02:56:22.593Z,0
2019-03-21T02:57:22.304Z,0
2019-03-21T02:58:22.605Z,0
2019-03-21T02:59:22.555Z,0
2019-03-21T03:00:22.599Z,0
2019-03-21T03:01:22.601Z,0
2019-03-21T03:02:22.560Z,0
2019-03-21T03:03:22.499Z,0
2019-03-21T03:04:22.537Z,0
2019-03-21T03:05:22.542Z,0
2019-03-21T03:06:22.530Z,0
2019-03-21T03:07:22.257Z,0
2019-03-21T03:08:22.556Z,0
2019-03-21T03:09:22.482Z,0
2019-03-21T03:10:22.433Z,0
2019-03-21T03:11:22.237Z,0
2019-03-21T03:12:22.438Z,0
2019-03-21T03:13:22.430Z,0
2019-03-21T03:14:22.448Z,0
2019-03-21T03:15:32.282Z,0
2019-03-21T03:16:22.472Z,0
2019-03-21T03:17:22.406Z,0
2019-03-21T03:18:22.423Z,0
2019-03-21T03:19:22.364Z,0
2019-03-21T03:20:22.374Z,0
2019-03-21T03:21:22.115Z,0
2019-03-21T03:22:22.378Z,0
2019-03-21T03:23:22.364Z,0
2019-03-21T03:24:22.329Z,0
2019-03-21T03:25:22.322Z,0
2019-03-21T03:26:22.303Z,0
2019-03-21T03:27:22.333Z,0
2019-03-21T03:28:22.347Z,0
2019-03-21T03:29:22.313Z,0
2019-03-21T03:30:22.307Z,0
2019-03-21T03:31:22.359Z,0
2019-03-21T03:32:22.284Z,0
2019-03-21T03:33:22.414Z,0
2019-03-21T03:34:22.227Z,0
2019-03-21T03:35:22.264Z,0
2019-03-21T03:36:22.235Z,0
2019-03-21T03:37:22.290Z,0
2019-03-21T03:38:22.194Z,0
2019-03-21T03:39:22.237Z,0
2019-03-21T03:40:22.236Z,0
2019-03-21T03:41:22.170Z,0
2019-03-21T03:42:22.161Z,0
2019-03-21T03:43:22.172Z,0
2019-03-21T03:44:22.166Z,0
2019-03-21T03:45:36.081Z,0
2019-03-21T03:46:22.104Z,0
2019-03-21T03:47:22.148Z,0
2019-03-21T03:48:24.779Z,0
2019-03-21T03:49:22.123Z,0
2019-03-21T03:50:22.087Z,0
2019-03-21T03:51:22.115Z,0
2019-03-21T03:52:22.068Z,0
2019-03-21T03:53:21.852Z,0
2019-03-21T03:54:22.025Z,0
2019-03-21T03:55:22.029Z,0
2019-03-21T03:56:21.797Z,0
2019-03-21T03:57:22.096Z,0
2019-03-21T03:58:22.053Z,0
2019-03-21T03:59:21.992Z,0
2019-03-21T04:00:21.994Z,0
2019-03-21T04:01:21.973Z,0
2019-03-21T04:02:22.004Z,0
2019-03-21T04:03:21.971Z,0
2019-03-21T04:04:21.956Z,0
2019-03-21T04:05:21.966Z,0
2019-03-21T04:06:21.930Z,0
2019-03-21T04:07:21.960Z,0
2019-03-21T04:08:21.925Z,0
2019-03-21T04:09:21.940Z,0
2019-03-21T04:10:21.877Z,0
2019-03-21T04:11:21.899Z,0
2019-03-21T04:12:21.894Z,0
2019-03-21T04:13:21.910Z,0
2019-03-21T04:14:22.008Z,0
2019-03-21T04:15:21.895Z,0
2019-03-21T04:16:21.855Z,0
2019-03-21T04:17:21.820Z,0
2019-03-21T04:18:21.864Z,0
2019-03-21T04:19:21.823Z,0
2019-03-21T04:20:21.845Z,0
2019-03-21T04:21:21.563Z,0
2019-03-21T04:22:21.823Z,0
2019-03-21T04:23:21.753Z,0
2019-03-21T04:24:21.786Z,0
2019-03-21T04:25:21.761Z,0
2019-03-21T04:26:21.548Z,0
2019-03-21T04:27:21.758Z,0
2019-03-21T04:28:21.737Z,0
2019-03-21T04:29:21.714Z,0
2019-03-21T04:30:21.757Z,0
2019-03-21T04:31:21.470Z,0
2019-03-21T04:32:21.696Z,0
2019-03-21T04:33:25.036Z,0
2019-03-21T04:34:21.728Z,0
2019-03-21T04:35:21.661Z,0
2019-03-21T04:36:21.452Z,0
2019-03-21T04:37:21.650Z,0
2019-03-21T04:38:21.490Z,0
2019-03-21T04:39:21.607Z,0
2019-03-21T04:40:21.634Z,0
2019-03-21T04:41:21.395Z,0
2019-03-21T04:42:21.640Z,0
2019-03-21T04:43:21.600Z,0
2019-03-21T04:44:21.596Z,0
2019-03-21T04:45:21.569Z,0
2019-03-21T04:46:21.540Z,0
2019-03-21T04:47:21.562Z,0
2019-03-21T04:48:21.543Z,0
2019-03-21T04:49:21.565Z,0
2019-03-21T04:50:21.313Z,0
2019-03-21T04:51:21.533Z,0
2019-03-21T04:52:21.483Z,0
2019-03-21T04:53:21.519Z,0
2019-03-21T04:54:21.465Z,0
2019-03-21T04:55:21.498Z,0
2019-03-21T04:56:21.489Z,0
2019-03-21T04:57:21.457Z,0
2019-03-21T04:58:21.486Z,0
2019-03-21T04:59:21.463Z,0
2019-03-21T05:00:21.449Z,0
2019-03-21T05:01:21.457Z,0
2019-03-21T05:02:21.481Z,0
2019-03-21T05:03:21.445Z,0
2019-03-21T05:04:21.407Z,0
2019-03-21T05:05:21.418Z,0
2019-03-21T05:06:21.354Z,0
2019-03-21T05:07:21.462Z,0
2019-03-21T05:08:21.372Z,0
2019-03-21T05:09:21.337Z,0
2019-03-21T05:10:21.370Z,0
2019-03-21T05:11:21.297Z,0
2019-03-21T05:12:21.322Z,0
2019-03-21T05:13:21.300Z,5
2019-03-21T05:14:21.372Z,5
2019-03-21T05:15:21.331Z,5
2019-03-21T05:16:24.415Z,5
2019-03-21T05:17:21.259Z,5
2019-03-21T05:18:21.240Z,5
2019-03-21T05:19:21.270Z,5
2019-03-21T05:20:23.792Z,5
2019-03-21T05:21:20.975Z,5
2019-03-21T05:22:21.257Z,10
2019-03-21T05:23:21.220Z,10
2019-03-21T05:24:21.235Z,10
2019-03-21T05:25:21.195Z,10
2019-03-21T05:26:21.223Z,10
2019-03-21T05:27:21.164Z,10
2019-03-21T05:28:21.183Z,10
2019-03-21T05:29:21.146Z,10
2019-03-21T05:30:21.184Z,10
2019-03-21T05:31:21.160Z,10
2019-03-21T05:32:21.144Z,10
2019-03-21T05:33:21.117Z,10
2019-03-21T05:34:21.100Z,10
2019-03-21T05:35:21.176Z,10
2019-03-21T05:36:21.125Z,15
2019-03-21T05:37:21.123Z,15
2019-03-21T05:38:21.063Z,15
2019-03-21T05:39:21.085Z,15
2019-03-21T05:40:21.038Z,15
2019-03-21T05:41:20.830Z,15
2019-03-21T05:42:21.024Z,20
2019-03-21T05:43:21.070Z,20
2019-03-21T05:44:21.021Z,25
2019-03-21T05:45:21.037Z,25
2019-03-21T05:46:31.236Z,25
2019-03-21T05:47:21.009Z,25
2019-03-21T05:48:20.991Z,25
2019-03-21T05:49:20.967Z,25
2019-03-21T05:50:22.194Z,25
2019-03-21T05:51:20.986Z,25
2019-03-21T05:52:20.954Z,25
2019-03-21T05:53:20.968Z,25
2019-03-21T05:54:20.913Z,25
2019-03-21T05:55:20.947Z,30
2019-03-21T05:56:20.893Z,30
2019-03-21T05:57:20.973Z,30
2019-03-21T05:58:20.873Z,30
2019-03-21T05:59:20.923Z,30
2019-03-21T06:00:20.886Z,30
2019-03-21T06:01:20.886Z,30
2019-03-21T06:02:20.843Z,30
2019-03-21T06:03:20.841Z,30
2019-03-21T06:04:20.842Z,25
2019-03-21T06:05:20.854Z,25
2019-03-21T06:06:21.783Z,25
2019-03-21T06:07:20.812Z,30
2019-03-21T06:08:20.804Z,30
2019-03-21T06:09:20.790Z,30
2019-03-21T06:10:20.814Z,30
2019-03-21T06:11:20.771Z,30
2019-03-21T06:12:20.768Z,30
2019-03-21T06:13:20.777Z,30
2019-03-21T06:14:20.728Z,30
2019-03-21T06:15:20.771Z,35
2019-03-21T06:16:20.509Z,35
2019-03-21T06:17:20.744Z,40
2019-03-21T06:18:20.695Z,45
2019-03-21T06:19:20.713Z,45
2019-03-21T06:20:20.699Z,45
2019-03-21T06:21:20.706Z,50
2019-03-21T06:22:20.706Z,50
2019-03-21T06:23:20.659Z,50
2019-03-21T06:24:20.661Z,55
2019-03-21T06:25:23.124Z,55
2019-03-21T06:26:20.676Z,60
2019-03-21T06:27:24.312Z,60
2019-03-21T06:28:20.658Z,55
2019-03-21T06:29:20.608Z,55
2019-03-21T06:30:20.684Z,55
2019-03-21T06:31:20.573Z,55
2019-03-21T06:32:22.624Z,55
2019-03-21T06:33:20.571Z,55
2019-03-21T06:34:20.602Z,55
2019-03-21T06:35:20.590Z,60
2019-03-21T06:36:20.563Z,60
2019-03-21T06:37:20.534Z,60
2019-03-21T06:38:20.318Z,55
2019-03-21T06:39:20.525Z,60
2019-03-21T06:40:20.527Z,55
2019-03-21T06:41:20.482Z,55
2019-03-21T06:42:20.537Z,55
2019-03-21T06:43:20.484Z,55
2019-03-21T06:44:20.516Z,55
2019-03-21T06:45:20.469Z,60
2019-03-21T06:46:20.493Z,60
2019-03-21T06:47:20.437Z,60
2019-03-21T06:48:20.466Z,60
2019-03-21T06:49:20.435Z,60
2019-03-21T06:50:20.510Z,60
2019-03-21T06:51:20.422Z,70
2019-03-21T06:52:20.414Z,70
2019-03-21T06:53:20.430Z,70
2019-03-21T06:54:20.433Z,70
2019-03-21T06:55:20.389Z,75
2019-03-21T06:56:20.397Z,80
2019-03-21T06:57:20.349Z,80
2019-03-21T06:58:20.399Z,85
2019-03-21T06:59:20.359Z,80
2019-03-21T07:00:20.378Z,80
2019-03-21T07:01:20.330Z,80
2019-03-21T07:02:20.368Z,85
2019-03-21T07:03:21.346Z,80
2019-03-21T07:04:20.072Z,85
2019-03-21T07:05:20.329Z,85
2019-03-21T07:06:20.273Z,85
2019-03-21T07:07:20.285Z,85
2019-03-21T07:08:20.307Z,90
2019-03-21T07:09:20.312Z,90
2019-03-21T07:10:20.312Z,95
2019-03-21T07:11:20.251Z,95
2019-03-21T07:12:20.254Z,90
2019-03-21T07:13:20.211Z,85
2019-03-21T07:14:20.262Z,85
2019-03-21T07:15:20.232Z,85
2019-03-21T07:16:20.252Z,90
2019-03-21T07:17:22.840Z,95
2019-03-21T07:18:20.227Z,100
2019-03-21T07:19:20.158Z,105
2019-03-21T07:20:20.195Z,100
2019-03-21T07:21:20.158Z,95
2019-03-21T07:22:22.031Z,100
2019-03-21T07:23:20.168Z,105
2019-03-21T07:24:19.916Z,110
2019-03-21T07:25:20.133Z,120
2019-03-21T07:26:20.138Z,120
2019-03-21T07:27:20.149Z,120
2019-03-21T07:28:20.118Z,125
2019-03-21T07:29:20.089Z,125
2019-03-21T07:30:20.125Z,130
2019-03-21T07:31:21.000Z,135
2019-03-21T07:32:20.114Z,140
2019-03-21T07:33:20.066Z,145
2019-03-21T07:34:20.096Z,155
2019-03-21T07:35:20.030Z,150
2019-03-21T07:36:19.812Z,150
2019-03-21T07:37:20.040Z,155
2019-03-21T07:38:20.067Z,155
2019-03-21T07:39:20.054Z,150
2019-03-21T07:40:20.026Z,145
2019-03-21T07:41:20.015Z,140
2019-03-21T07:42:20.006Z,145
2019-03-21T07:43:22.157Z,145
2019-03-21T07:44:19.994Z,150
2019-03-21T07:45:20.016Z,150
2019-03-21T07:46:19.959Z,150
2019-03-21T07:47:22.626Z,150
2019-03-21T07:48:19.933Z,155
2019-03-21T07:49:19.972Z,160
2019-03-21T07:50:19.931Z,155
2019-03-21T07:51:19.969Z,145
2019-03-21T07:52:19.685Z,140
2019-03-21T07:53:22.013Z,145
2019-03-21T07:54:19.896Z,150
2019-03-21T07:55:19.674Z,150
2019-03-21T07:56:19.899Z,145
2019-03-21T07:57:19.880Z,150
2019-03-21T07:58:19.862Z,155
2019-03-21T07:59:19.901Z,160
2019-03-21T08:00:19.869Z,160
2019-03-21T08:01:19.893Z,155
2019-03-21T08:02:19.838Z,160
2019-03-21T08:03:19.861Z,160
2019-03-21T08:04:19.825Z,160
2019-03-21T08:05:19.853Z,155
2019-03-21T08:06:19.562Z,150
2019-03-21T08:07:19.598Z,150
2019-03-21T08:08:19.803Z,150
2019-03-21T08:09:19.816Z,150
2019-03-21T08:10:19.531Z,150
2019-03-21T08:11:19.778Z,150
2019-03-21T08:12:19.779Z,155
2019-03-21T08:13:19.785Z,160
2019-03-21T08:14:19.557Z,170
2019-03-21T08:15:19.742Z,185
2019-03-21T08:16:19.751Z,185
2019-03-21T08:17:19.717Z,195
2019-03-21T08:18:19.763Z,200
2019-03-21T08:19:19.738Z,200
2019-03-21T08:20:19.729Z,195
2019-03-21T08:21:19.726Z,195
2019-03-21T08:22:19.741Z,195
2019-03-21T08:23:19.734Z,200
2019-03-21T08:24:19.692Z,205
2019-03-21T08:25:19.704Z,205
2019-03-21T08:26:19.711Z,205
2019-03-21T08:27:19.419Z,205
2019-03-21T08:28:19.659Z,205
2019-03-21T08:29:19.672Z,210
2019-03-21T08:30:19.674Z,210
2019-03-21T08:31:19.632Z,210
2019-03-21T08:32:19.638Z,210
2019-03-21T08:33:19.657Z,210
2019-03-21T08:34:19.605Z,205
2019-03-21T08:35:19.646Z,205
2019-03-21T08:36:19.586Z,210
2019-03-21T08:37:19.620Z,205
2019-03-21T08:38:19.572Z,200
2019-03-21T08:39:19.621Z,195
2019-03-21T08:40:19.581Z,195
2019-03-21T08:41:19.599Z,200
2019-03-21T08:42:19.544Z,195
2019-03-21T08:43:19.556Z,195
2019-03-21T08:44:19.548Z,195
2019-03-21T08:45:19.559Z,205
2019-03-21T08:46:19.519Z,205
2019-03-21T08:47:19.549Z,210
2019-03-21T08:48:19.526Z,210
2019-03-21T08:49:19.548Z,210
2019-03-21T08:50:19.490Z,210
2019-03-21T08:51:19.280Z,210
2019-03-21T08:52:19.473Z,215
2019-03-21T08:53:19.515Z,215
2019-03-21T08:54:19.226Z,220
2019-03-21T08:55:19.561Z,225
2019-03-21T08:56:19.495Z,230
2019-03-21T08:57:19.486Z,235
2019-03-21T08:58:19.438Z,235
2019-03-21T08:59:19.644Z,235
2019-03-21T09:00:19.443Z,240
2019-03-21T09:01:19.455Z,245
2019-03-21T09:02:19.455Z,250
2019-03-21T09:03:19.410Z,255
2019-03-21T09:04:19.417Z,260
2019-03-21T09:05:19.392Z,255
2019-03-21T09:06:19.455Z,250
2019-03-21T09:07:19.400Z,245
2019-03-21T09:08:19.434Z,240
2019-03-21T09:09:19.377Z,235
2019-03-21T09:10:19.416Z,230
2019-03-21T09:11:19.383Z,235
2019-03-21T09:12:19.374Z,235
2019-03-21T09:13:19.388Z,245
2019-03-21T09:14:19.332Z,250
2019-03-21T09:15:19.100Z,255
2019-03-21T09:16:20.494Z,250
2019-03-21T09:17:19.353Z,250
2019-03-21T09:18:19.366Z,250
2019-03-21T09:19:19.078Z,250
2019-03-21T09:20:21.378Z,260
2019-03-21T09:21:29.181Z,260
2019-03-21T09:22:20.903Z,255
2019-03-21T09:23:19.301Z,250
2019-03-21T09:24:19.329Z,245
2019-03-21T09:25:19.281Z,250
2019-03-21T09:26:19.312Z,250
2019-03-21T09:27:19.253Z,255
2019-03-21T09:28:21.385Z,260
2019-03-21T09:29:19.246Z,250
2019-03-21T09:30:19.285Z,250
2019-03-21T09:31:19.274Z,240
2019-03-21T09:32:19.469Z,230
2019-03-21T09:33:19.236Z,230
2019-03-21T09:34:19.216Z,240
2019-03-21T09:35:22.001Z,250
2019-03-21T09:36:19.229Z,270
2019-03-21T09:37:19.204Z,275
2019-03-21T09:38:19.248Z,270
2019-03-21T09:39:18.722Z,270
2019-03-21T09:40:18.990Z,280
2019-03-21T09:41:19.185Z,275
2019-03-21T09:42:19.214Z,270
2019-03-21T09:43:19.155Z,275
2019-03-21T09:44:19.175Z,295
2019-03-21T09:45:18.911Z,330
2019-03-21T09:46:19.194Z,355
2019-03-21T09:47:19.170Z,355
2019-03-21T09:48:19.158Z,365
2019-03-21T09:49:19.133Z,365
2019-03-21T09:50:19.122Z,350
2019-03-21T09:51:30.283Z,365
2019-03-21T09:52:19.131Z,345
2019-03-21T09:53:19.150Z,340
2019-03-21T09:54:19.541Z,350
2019-03-21T09:55:19.121Z,305
2019-03-21T09:56:18.836Z,270
2019-03-21T09:57:18.880Z,230
2019-03-21T09:58:19.080Z,210
2019-03-21T09:59:19.142Z,240
2019-03-21T10:00:19.084Z,230
2019-03-21T10:01:19.098Z,205
2019-03-21T10:02:19.052Z,205
2019-03-21T10:03:19.104Z,200
2019-03-21T10:04:19.095Z,195
2019-03-21T10:05:19.044Z,190
2019-03-21T10:06:19.336Z,180
2019-03-21T10:07:19.058Z,180
2019-03-21T10:08:19.043Z,185
2019-03-21T10:09:19.067Z,195
2019-03-21T10:10:19.012Z,185
2019-03-21T10:11:19.042Z,185
2019-03-21T10:12:18.989Z,225
2019-03-21T10:13:19.032Z,265
2019-03-21T10:14:18.983Z,285
2019-03-21T10:15:19.015Z,285
2019-03-21T10:16:18.998Z,285
2019-03-21T10:17:18.970Z,300
2019-03-21T10:18:19.020Z,300
2019-03-21T10:19:18.996Z,305
2019-03-21T10:20:18.991Z,285
2019-03-21T10:21:18.974Z,270
2019-03-21T10:22:19.025Z,250
2019-03-21T10:23:18.965Z,235
2019-03-21T10:24:18.982Z,245
2019-03-21T10:25:18.974Z,250
2019-03-21T10:26:18.918Z,220
2019-03-21T10:27:18.942Z,190
2019-03-21T10:28:18.929Z,175
2019-03-21T10:29:18.908Z,175
2019-03-21T10:30:18.944Z,180
2019-03-21T10:31:18.888Z,195
2019-03-21T10:32:23.898Z,195
2019-03-21T10:33:18.951Z,190
2019-03-21T10:34:18.674Z,195
2019-03-21T10:35:18.906Z,215
2019-03-21T10:36:20.957Z,255
2019-03-21T10:37:18.863Z,260
2019-03-21T10:38:18.858Z,250
2019-03-21T10:39:18.879Z,240
2019-03-21T10:40:18.868Z,230
2019-03-21T10:41:18.884Z,220
2019-03-21T10:42:18.825Z,220
2019-03-21T10:43:20.128Z,210
2019-03-21T10:44:18.845Z,220
2019-03-21T10:45:18.859Z,215
2019-03-21T10:46:18.806Z,200
2019-03-21T10:47:18.848Z,195
2019-03-21T10:48:18.811Z,195
2019-03-21T10:49:18.825Z,190
2019-03-21T10:50:18.800Z,185
2019-03-21T10:51:18.789Z,185
2019-03-21T10:52:18.790Z,190
2019-03-21T10:53:18.802Z,190
2019-03-21T10:54:18.753Z,195
2019-03-21T10:55:18.780Z,195
2019-03-21T10:56:18.767Z,190
2019-03-21T10:57:18.789Z,205
2019-03-21T10:58:18.736Z,230
2019-03-21T10:59:18.760Z,240
2019-03-21T11:00:18.710Z,245
2019-03-21T11:01:18.794Z,250
2019-03-21T11:02:18.707Z,245
2019-03-21T11:03:18.764Z,255
2019-03-21T11:04:18.551Z,260
2019-03-21T11:05:18.481Z,275
2019-03-21T11:06:18.438Z,260
2019-03-21T11:07:18.689Z,250
2019-03-21T11:08:18.701Z,250
2019-03-21T11:09:18.701Z,250
2019-03-21T11:10:18.714Z,245
2019-03-21T11:11:18.663Z,250
2019-03-21T11:12:18.673Z,250
2019-03-21T11:13:18.396Z,245
2019-03-21T11:14:18.686Z,245
2019-03-21T11:15:18.644Z,255
2019-03-21T11:16:18.686Z,270
2019-03-21T11:17:18.636Z,275
2019-03-21T11:18:18.661Z,285
2019-03-21T11:19:18.689Z,310
2019-03-21T11:20:18.623Z,325
2019-03-21T11:21:18.643Z,325
2019-03-21T11:22:18.582Z,320
2019-03-21T11:23:18.602Z,315
2019-03-21T11:24:18.603Z,315
2019-03-21T11:25:18.615Z,315
2019-03-21T11:26:18.611Z,305
2019-03-21T11:27:18.586Z,300
2019-03-21T11:28:20.245Z,290
2019-03-21T11:29:18.569Z,275
2019-03-21T11:30:25.574Z,255
2019-03-21T11:31:18.555Z,260
2019-03-21T11:32:18.601Z,260
2019-03-21T11:33:18.536Z,255
2019-03-21T11:34:18.571Z,255
2019-03-21T11:35:18.512Z,265
2019-03-21T11:36:18.544Z,270
2019-03-21T11:37:18.520Z,265
2019-03-21T11:38:18.558Z,260
2019-03-21T11:39:18.529Z,265
2019-03-21T11:40:18.526Z,275
2019-03-21T11:41:18.518Z,270
2019-03-21T11:42:18.557Z,270
2019-03-21T11:43:18.564Z,275
2019-03-21T11:44:18.526Z,285
2019-03-21T11:45:19.933Z,275
2019-03-21T11:46:18.536Z,260
2019-03-21T11:47:18.462Z,255
2019-03-21T11:48:18.530Z,250
2019-03-21T11:49:18.513Z,240
2019-03-21T11:50:18.482Z,230
2019-03-21T11:51:18.442Z,230
2019-03-21T11:52:27.668Z,230
2019-03-21T11:53:18.449Z,235
2019-03-21T11:54:18.485Z,245
2019-03-21T11:55:18.585Z,240
2019-03-21T11:56:20.378Z,240
2019-03-21T11:57:18.410Z,230
2019-03-21T11:58:20.143Z,215
2019-03-21T11:59:18.397Z,210
2019-03-21T12:00:18.405Z,215
2019-03-21T12:01:18.372Z,215
2019-03-21T12:02:29.596Z,225
2019-03-21T12:03:18.391Z,225
2019-03-21T12:04:18.417Z,225
2019-03-21T12:05:18.369Z,230
2019-03-21T12:06:18.407Z,225
2019-03-21T12:07:18.337Z,220
2019-03-21T12:08:18.410Z,225
2019-03-21T12:09:18.343Z,225
2019-03-21T12:10:18.372Z,230
2019-03-21T12:11:21.007Z,235
2019-03-21T12:12:18.350Z,240
2019-03-21T12:13:18.400Z,240
2019-03-21T12:14:18.359Z,240
2019-03-21T12:15:18.316Z,245
2019-03-21T12:16:18.328Z,250
2019-03-21T12:17:19.981Z,250
2019-03-21T12:18:18.334Z,260
2019-03-21T12:19:18.288Z,255
2019-03-21T12:20:18.326Z,250
2019-03-21T12:21:18.276Z,235
2019-03-21T12:22:29.133Z,240
2019-03-21T12:23:18.253Z,235
2019-03-21T12:24:18.342Z,230
2019-03-21T12:25:18.254Z,215
2019-03-21T12:26:18.314Z,215
2019-03-21T12:27:18.269Z,210
2019-03-21T12:28:18.259Z,205
2019-03-21T12:29:18.228Z,210
2019-03-21T12:30:18.214Z,220
2019-03-21T12:31:18.244Z,230
2019-03-21T12:32:18.229Z,240
2019-03-21T12:33:18.264Z,245
2019-03-21T12:34:18.191Z,255
2019-03-21T12:35:18.228Z,255
2019-03-21T12:36:18.213Z,250
2019-03-21T12:37:18.181Z,255
2019-03-21T12:38:18.232Z,260
2019-03-21T12:39:18.210Z,260
2019-03-21T12:40:18.204Z,260
2019-03-21T12:41:18.159Z,265
2019-03-21T12:42:18.203Z,265
2019-03-21T12:43:18.216Z,265
2019-03-21T12:44:18.163Z,275
2019-03-21T12:45:18.142Z,280
2019-03-21T12:46:18.130Z,275
2019-03-21T12:47:17.905Z,270
2019-03-21T12:48:18.149Z,275
2019-03-21T12:49:18.161Z,280
2019-03-21T12:50:17.631Z,270
2019-03-21T12:51:18.717Z,260
2019-03-21T12:52:18.104Z,255
2019-03-21T12:53:18.129Z,255
2019-03-21T12:54:18.081Z,255
2019-03-21T12:55:18.138Z,260
2019-03-21T12:56:18.098Z,260
2019-03-21T12:57:18.124Z,255
2019-03-21T12:58:18.064Z,250
2019-03-21T12:59:18.081Z,255
2019-03-21T13:00:18.078Z,255
2019-03-21T13:01:18.095Z,255
2019-03-21T13:02:18.049Z,255
2019-03-21T13:03:18.081Z,250
2019-03-21T13:04:18.068Z,255
2019-03-21T13:05:18.080Z,260
2019-03-21T13:06:18.093Z,275
2019-03-21T13:07:19.640Z,270
2019-03-21T13:08:18.013Z,260
2019-03-21T13:09:18.042Z,255
2019-03-21T13:10:18.008Z,255
2019-03-21T13:11:18.095Z,255
2019-03-21T13:12:18.016Z,260
2019-03-21T13:13:17.768Z,260
2019-03-21T13:14:17.961Z,260
2019-03-21T13:15:29.215Z,260
2019-03-21T13:16:17.990Z,265
2019-03-21T13:17:18.038Z,260
2019-03-21T13:18:18.002Z,260
2019-03-21T13:19:17.961Z,265
2019-03-21T13:20:17.969Z,265
2019-03-21T13:21:17.930Z,270
2019-03-21T13:22:18.030Z,275
2019-03-21T13:23:17.946Z,270
2019-03-21T13:24:21.792Z,265
2019-03-21T13:25:17.931Z,260
2019-03-21T13:26:18.023Z,250
2019-03-21T13:27:17.923Z,245
2019-03-21T13:28:17.919Z,245
2019-03-21T13:29:17.688Z,245
2019-03-21T13:30:17.892Z,250
2019-03-21T13:31:17.899Z,255
2019-03-21T13:32:17.909Z,265
2019-03-21T13:33:17.908Z,265
2019-03-21T13:34:17.932Z,265
2019-03-21T13:35:17.879Z,265
2019-03-21T13:36:17.880Z,265
2019-03-21T13:37:17.841Z,270
2019-03-21T13:38:17.915Z,265
2019-03-21T13:39:17.851Z,270
2019-03-21T13:40:17.894Z,295
2019-03-21T13:41:17.841Z,315
2019-03-21T13:42:17.867Z,320
2019-03-21T13:43:20.544Z,330
2019-03-21T13:44:17.836Z,335
2019-03-21T13:45:17.822Z,325
2019-03-21T13:46:17.855Z,320
2019-03-21T13:47:17.830Z,310
2019-03-21T13:48:17.815Z,295
2019-03-21T13:49:17.799Z,285
2019-03-21T13:50:17.797Z,280
2019-03-21T13:51:17.819Z,290
2019-03-21T13:52:17.808Z,295
2019-03-21T13:53:28.130Z,280
2019-03-21T13:54:18.496Z,280
2019-03-21T13:55:17.530Z,260
2019-03-21T13:56:17.802Z,260
2019-03-21T13:57:17.761Z,260
2019-03-21T13:58:17.798Z,250
2019-03-21T13:59:17.738Z,240
2019-03-21T14:00:17.761Z,245
2019-03-21T14:01:17.749Z,250
2019-03-21T14:02:17.790Z,245
2019-03-21T14:03:29.282Z,245
2019-03-21T14:04:17.741Z,245
2019-03-21T14:05:17.728Z,240
2019-03-21T14:06:17.698Z,240
2019-03-21T14:07:17.482Z,245
2019-03-21T14:08:17.724Z,245
2019-03-21T14:09:19.320Z,245
2019-03-21T14:10:17.684Z,245
2019-03-21T14:11:19.306Z,245
2019-03-21T14:12:17.674Z,245